sensor_id;sensor_type;location;lat;lon;timestamp;temperature;humidity
12413;DHT22;13877;18.896;-99.222;2023-05-19T00:00:57;29.70;32.30
12413;DHT22;13877;18.896;-99.222;2023-05-19T00:03:25;29.50;32.80
12413;DHT22;13877;18.896;-99.222;2023-05-19T00:05:53;29.40;33.10
12413;DHT22;13877;18.896;-99.222;2023-05-19T00:08:22;29.30;33.50
12413;DHT22;13877;18.896;-99.222;2023-05-19T00:10:50;29.20;33.50
12413;DHT22;13877;18.896;-99.222;2023-05-19T00:13:17;29.10;33.90
12413;DHT22;13877;18.896;-99.222;2023-05-19T00:15:45;29.00;34.30
12413;DHT22;13877;18.896;-99.222;2023-05-19T00:18:12;28.90;35.00
12413;DHT22;13877;18.896;-99.222;2023-05-19T00:20:39;28.70;35.40
12413;DHT22;13877;18.896;-99.222;2023-05-19T00:23:06;28.60;35.80
12413;DHT22;13877;18.896;-99.222;2023-05-19T00:25:33;28.50;35.80
12413;DHT22;13877;18.896;-99.222;2023-05-19T00:28:00;28.40;35.30
12413;DHT22;13877;18.896;-99.222;2023-05-19T00:30:31;28.30;34.70
12413;DHT22;13877;18.896;-99.222;2023-05-19T00:32:58;28.30;34.60
12413;DHT22;13877;18.896;-99.222;2023-05-19T00:35:25;28.30;34.00
12413;DHT22;13877;18.896;-99.222;2023-05-19T00:37:51;28.20;34.40
12413;DHT22;13877;18.896;-99.222;2023-05-19T00:40:19;28.20;34.50
12413;DHT22;13877;18.896;-99.222;2023-05-19T00:42:46;28.10;34.80
12413;DHT22;13877;18.896;-99.222;2023-05-19T00:45:12;28.10;35.00
12413;DHT22;13877;18.896;-99.222;2023-05-19T00:47:39;28.00;35.40
12413;DHT22;13877;18.896;-99.222;2023-05-19T00:50:07;27.90;34.10
12413;DHT22;13877;18.896;-99.222;2023-05-19T00:52:34;27.80;34.60
12413;DHT22;13877;18.896;-99.222;2023-05-19T00:55:01;27.70;34.70
12413;DHT22;13877;18.896;-99.222;2023-05-19T00:57:28;27.60;35.00
12413;DHT22;13877;18.896;-99.222;2023-05-19T00:59:56;27.60;35.20
12413;DHT22;13877;18.896;-99.222;2023-05-19T01:02:22;27.60;35.30
12413;DHT22;13877;18.896;-99.222;2023-05-19T01:04:50;27.50;35.40
12413;DHT22;13877;18.896;-99.222;2023-05-19T01:07:20;27.60;35.80
12413;DHT22;13877;18.896;-99.222;2023-05-19T01:09:48;27.50;36.00
12413;DHT22;13877;18.896;-99.222;2023-05-19T01:12:15;27.50;36.50
12413;DHT22;13877;18.896;-99.222;2023-05-19T01:14:43;27.50;36.70
12413;DHT22;13877;18.896;-99.222;2023-05-19T01:17:29;27.50;37.00
12413;DHT22;13877;18.896;-99.222;2023-05-19T01:20:07;27.50;37.20
12413;DHT22;13877;18.896;-99.222;2023-05-19T01:28:02;27.50;37.50
12413;DHT22;13877;18.896;-99.222;2023-05-19T01:30:47;27.50;37.40
12413;DHT22;13877;18.896;-99.222;2023-05-19T01:33:15;27.50;37.30
12413;DHT22;13877;18.896;-99.222;2023-05-19T01:35:43;27.50;37.60
12413;DHT22;13877;18.896;-99.222;2023-05-19T01:38:16;27.40;37.40
12413;DHT22;13877;18.896;-99.222;2023-05-19T01:40:43;27.40;37.20
12413;DHT22;13877;18.896;-99.222;2023-05-19T01:43:15;27.30;37.10
12413;DHT22;13877;18.896;-99.222;2023-05-19T01:45:43;27.30;36.40
12413;DHT22;13877;18.896;-99.222;2023-05-19T01:48:10;27.20;36.80
12413;DHT22;13877;18.896;-99.222;2023-05-19T01:50:39;27.20;36.80
12413;DHT22;13877;18.896;-99.222;2023-05-19T01:53:07;27.10;36.80
12413;DHT22;13877;18.896;-99.222;2023-05-19T01:55:43;27.10;36.70
12413;DHT22;13877;18.896;-99.222;2023-05-19T02:01:11;26.90;36.90
12413;DHT22;13877;18.896;-99.222;2023-05-19T02:03:53;26.80;36.90
12413;DHT22;13877;18.896;-99.222;2023-05-19T02:09:57;26.80;37.10
12413;DHT22;13877;18.896;-99.222;2023-05-19T02:12:35;26.80;36.60
12413;DHT22;13877;18.896;-99.222;2023-05-19T02:15:08;26.80;35.80
12413;DHT22;13877;18.896;-99.222;2023-05-19T02:17:44;26.80;35.50
12413;DHT22;13877;18.896;-99.222;2023-05-19T02:20:17;26.80;35.30
12413;DHT22;13877;18.896;-99.222;2023-05-19T02:22:44;26.80;34.80
12413;DHT22;13877;18.896;-99.222;2023-05-19T02:25:12;26.80;35.20
12413;DHT22;13877;18.896;-99.222;2023-05-19T02:27:40;26.70;35.10
12413;DHT22;13877;18.896;-99.222;2023-05-19T02:30:08;26.60;36.00
12413;DHT22;13877;18.896;-99.222;2023-05-19T02:32:36;26.40;36.60
12413;DHT22;13877;18.896;-99.222;2023-05-19T02:35:03;26.30;36.50
12413;DHT22;13877;18.896;-99.222;2023-05-19T02:37:30;26.50;35.50
12413;DHT22;13877;18.896;-99.222;2023-05-19T02:39:58;26.50;35.80
12413;DHT22;13877;18.896;-99.222;2023-05-19T02:42:25;26.60;35.10
12413;DHT22;13877;18.896;-99.222;2023-05-19T02:44:53;26.60;35.50
12413;DHT22;13877;18.896;-99.222;2023-05-19T02:47:20;26.60;35.30
12413;DHT22;13877;18.896;-99.222;2023-05-19T02:49:47;26.50;35.20
12413;DHT22;13877;18.896;-99.222;2023-05-19T02:52:15;26.60;35.30
12413;DHT22;13877;18.896;-99.222;2023-05-19T02:54:42;26.50;35.20
12413;DHT22;13877;18.896;-99.222;2023-05-19T02:57:09;26.50;35.40
12413;DHT22;13877;18.896;-99.222;2023-05-19T02:59:36;26.40;35.50
12413;DHT22;13877;18.896;-99.222;2023-05-19T03:02:03;26.40;35.40
12413;DHT22;13877;18.896;-99.222;2023-05-19T03:04:32;26.40;35.50
12413;DHT22;13877;18.896;-99.222;2023-05-19T03:07:07;26.40;35.40
12413;DHT22;13877;18.896;-99.222;2023-05-19T03:09:39;26.30;35.80
12413;DHT22;13877;18.896;-99.222;2023-05-19T03:12:06;26.20;35.70
12413;DHT22;13877;18.896;-99.222;2023-05-19T03:14:34;26.30;35.30
12413;DHT22;13877;18.896;-99.222;2023-05-19T03:17:02;26.50;34.70
12413;DHT22;13877;18.896;-99.222;2023-05-19T03:19:32;26.50;34.50
12413;DHT22;13877;18.896;-99.222;2023-05-19T03:21:59;26.50;34.70
12413;DHT22;13877;18.896;-99.222;2023-05-19T03:24:26;26.40;34.20
12413;DHT22;13877;18.896;-99.222;2023-05-19T03:26:54;26.40;34.00
12413;DHT22;13877;18.896;-99.222;2023-05-19T03:29:21;26.30;33.30
12413;DHT22;13877;18.896;-99.222;2023-05-19T03:31:50;26.70;32.70
12413;DHT22;13877;18.896;-99.222;2023-05-19T03:34:18;26.80;31.60
12413;DHT22;13877;18.896;-99.222;2023-05-19T03:36:45;26.80;31.60
12413;DHT22;13877;18.896;-99.222;2023-05-19T03:39:15;26.80;30.70
12413;DHT22;13877;18.896;-99.222;2023-05-19T03:41:44;26.90;30.40
12413;DHT22;13877;18.896;-99.222;2023-05-19T03:44:11;26.80;30.40
12413;DHT22;13877;18.896;-99.222;2023-05-19T03:46:38;26.80;31.00
12413;DHT22;13877;18.896;-99.222;2023-05-19T03:49:08;26.90;32.00
12413;DHT22;13877;18.896;-99.222;2023-05-19T03:51:55;26.90;31.30
12413;DHT22;13877;18.896;-99.222;2023-05-19T03:54:42;27.20;30.50
12413;DHT22;13877;18.896;-99.222;2023-05-19T03:57:09;27.20;29.90
12413;DHT22;13877;18.896;-99.222;2023-05-19T03:59:38;27.20;30.00
12413;DHT22;13877;18.896;-99.222;2023-05-19T04:02:06;27.10;30.40
12413;DHT22;13877;18.896;-99.222;2023-05-19T04:04:34;27.20;31.10
12413;DHT22;13877;18.896;-99.222;2023-05-19T04:07:02;27.00;33.70
12413;DHT22;13877;18.896;-99.222;2023-05-19T04:09:29;26.90;35.10
12413;DHT22;13877;18.896;-99.222;2023-05-19T04:12:01;26.70;35.90
12413;DHT22;13877;18.896;-99.222;2023-05-19T04:14:30;26.40;37.20
12413;DHT22;13877;18.896;-99.222;2023-05-19T04:16:57;26.20;38.10
12413;DHT22;13877;18.896;-99.222;2023-05-19T04:19:24;26.00;38.80
12413;DHT22;13877;18.896;-99.222;2023-05-19T04:21:51;25.90;39.90
12413;DHT22;13877;18.896;-99.222;2023-05-19T04:24:18;25.70;40.80
12413;DHT22;13877;18.896;-99.222;2023-05-19T04:26:46;25.50;41.40
12413;DHT22;13877;18.896;-99.222;2023-05-19T04:29:14;25.40;41.90
12413;DHT22;13877;18.896;-99.222;2023-05-19T04:31:44;25.30;42.60
12413;DHT22;13877;18.896;-99.222;2023-05-19T04:34:11;25.10;44.00
12413;DHT22;13877;18.896;-99.222;2023-05-19T04:36:38;24.90;45.00
12413;DHT22;13877;18.896;-99.222;2023-05-19T04:39:06;24.80;45.50
12413;DHT22;13877;18.896;-99.222;2023-05-19T04:41:34;24.70;46.00
12413;DHT22;13877;18.896;-99.222;2023-05-19T04:44:03;24.60;46.60
12413;DHT22;13877;18.896;-99.222;2023-05-19T04:46:30;24.50;46.90
12413;DHT22;13877;18.896;-99.222;2023-05-19T04:48:58;24.40;46.60
12413;DHT22;13877;18.896;-99.222;2023-05-19T04:51:30;24.20;46.80
12413;DHT22;13877;18.896;-99.222;2023-05-19T04:54:09;24.20;46.90
12413;DHT22;13877;18.896;-99.222;2023-05-19T04:56:37;24.20;46.90
12413;DHT22;13877;18.896;-99.222;2023-05-19T04:59:04;24.30;47.00
12413;DHT22;13877;18.896;-99.222;2023-05-19T05:01:32;24.30;47.30
12413;DHT22;13877;18.896;-99.222;2023-05-19T05:04:00;24.10;48.40
12413;DHT22;13877;18.896;-99.222;2023-05-19T05:06:28;24.00;48.20
12413;DHT22;13877;18.896;-99.222;2023-05-19T05:08:58;24.00;48.60
12413;DHT22;13877;18.896;-99.222;2023-05-19T05:11:30;24.00;48.90
12413;DHT22;13877;18.896;-99.222;2023-05-19T05:13:57;24.00;49.40
12413;DHT22;13877;18.896;-99.222;2023-05-19T05:16:26;23.90;49.60
12413;DHT22;13877;18.896;-99.222;2023-05-19T05:18:53;23.80;49.90
12413;DHT22;13877;18.896;-99.222;2023-05-19T05:21:20;23.70;49.90
12413;DHT22;13877;18.896;-99.222;2023-05-19T05:23:50;23.60;50.30
12413;DHT22;13877;18.896;-99.222;2023-05-19T05:26:19;23.60;50.60
12413;DHT22;13877;18.896;-99.222;2023-05-19T05:28:53;23.50;51.00
12413;DHT22;13877;18.896;-99.222;2023-05-19T05:31:20;23.50;51.50
12413;DHT22;13877;18.896;-99.222;2023-05-19T05:33:47;23.30;51.90
12413;DHT22;13877;18.896;-99.222;2023-05-19T05:36:17;23.20;52.40
12413;DHT22;13877;18.896;-99.222;2023-05-19T05:38:46;23.00;52.90
12413;DHT22;13877;18.896;-99.222;2023-05-19T05:41:14;22.90;53.90
12413;DHT22;13877;18.896;-99.222;2023-05-19T05:43:42;22.70;54.60
12413;DHT22;13877;18.896;-99.222;2023-05-19T05:46:09;22.70;55.30
12413;DHT22;13877;18.896;-99.222;2023-05-19T05:48:36;22.60;55.20
12413;DHT22;13877;18.896;-99.222;2023-05-19T05:51:04;22.60;55.00
12413;DHT22;13877;18.896;-99.222;2023-05-19T05:53:34;22.70;53.90
12413;DHT22;13877;18.896;-99.222;2023-05-19T05:56:03;22.70;53.30
12413;DHT22;13877;18.896;-99.222;2023-05-19T05:58:38;22.70;53.20
12413;DHT22;13877;18.896;-99.222;2023-05-19T06:01:06;22.70;53.00
12413;DHT22;13877;18.896;-99.222;2023-05-19T06:03:41;22.60;52.80
12413;DHT22;13877;18.896;-99.222;2023-05-19T06:06:11;22.70;52.70
12413;DHT22;13877;18.896;-99.222;2023-05-19T06:08:39;22.70;52.70
12413;DHT22;13877;18.896;-99.222;2023-05-19T06:11:07;22.70;53.50
12413;DHT22;13877;18.896;-99.222;2023-05-19T06:13:36;22.60;54.10
12413;DHT22;13877;18.896;-99.222;2023-05-19T06:16:07;22.60;54.50
12413;DHT22;13877;18.896;-99.222;2023-05-19T06:18:39;22.50;55.00
12413;DHT22;13877;18.896;-99.222;2023-05-19T06:21:07;22.40;55.80
12413;DHT22;13877;18.896;-99.222;2023-05-19T06:23:36;22.40;56.20
12413;DHT22;13877;18.896;-99.222;2023-05-19T06:26:06;22.30;56.80
12413;DHT22;13877;18.896;-99.222;2023-05-19T06:28:33;22.20;57.70
12413;DHT22;13877;18.896;-99.222;2023-05-19T06:31:00;22.00;59.80
12413;DHT22;13877;18.896;-99.222;2023-05-19T06:33:53;21.90;61.30
12413;DHT22;13877;18.896;-99.222;2023-05-19T06:36:21;21.80;63.80
12413;DHT22;13877;18.896;-99.222;2023-05-19T06:38:48;21.70;65.40
12413;DHT22;13877;18.896;-99.222;2023-05-19T06:41:15;21.60;67.20
12413;DHT22;13877;18.896;-99.222;2023-05-19T06:43:42;21.50;68.60
12413;DHT22;13877;18.896;-99.222;2023-05-19T06:46:13;21.50;70.20
12413;DHT22;13877;18.896;-99.222;2023-05-19T06:48:41;21.30;72.00
12413;DHT22;13877;18.896;-99.222;2023-05-19T06:51:09;21.30;74.00
12413;DHT22;13877;18.896;-99.222;2023-05-19T06:53:37;21.20;75.60
12413;DHT22;13877;18.896;-99.222;2023-05-19T06:56:08;21.10;77.50
12413;DHT22;13877;18.896;-99.222;2023-05-19T06:58:36;21.10;79.30
12413;DHT22;13877;18.896;-99.222;2023-05-19T07:01:05;21.00;81.40
12413;DHT22;13877;18.896;-99.222;2023-05-19T07:03:39;21.00;83.50
12413;DHT22;13877;18.896;-99.222;2023-05-19T07:06:08;20.90;85.10
12413;DHT22;13877;18.896;-99.222;2023-05-19T07:08:35;20.90;86.10
12413;DHT22;13877;18.896;-99.222;2023-05-19T07:11:04;20.90;87.70
12413;DHT22;13877;18.896;-99.222;2023-05-19T07:13:31;20.80;88.20
12413;DHT22;13877;18.896;-99.222;2023-05-19T07:15:58;20.90;88.20
12413;DHT22;13877;18.896;-99.222;2023-05-19T07:18:27;20.80;88.70
12413;DHT22;13877;18.896;-99.222;2023-05-19T07:20:57;20.90;89.30
12413;DHT22;13877;18.896;-99.222;2023-05-19T07:23:24;21.00;89.30
12413;DHT22;13877;18.896;-99.222;2023-05-19T07:25:55;21.10;88.80
12413;DHT22;13877;18.896;-99.222;2023-05-19T07:28:21;21.20;88.80
12413;DHT22;13877;18.896;-99.222;2023-05-19T07:30:48;21.20;89.20
12413;DHT22;13877;18.896;-99.222;2023-05-19T07:33:15;21.20;89.70
12413;DHT22;13877;18.896;-99.222;2023-05-19T07:35:42;21.20;89.50
12413;DHT22;13877;18.896;-99.222;2023-05-19T07:38:11;21.20;89.10
12413;DHT22;13877;18.896;-99.222;2023-05-19T07:40:38;21.20;89.00
12413;DHT22;13877;18.896;-99.222;2023-05-19T07:43:04;21.10;89.20
12413;DHT22;13877;18.896;-99.222;2023-05-19T07:45:31;21.10;89.30
12413;DHT22;13877;18.896;-99.222;2023-05-19T07:47:58;21.20;89.20
12413;DHT22;13877;18.896;-99.222;2023-05-19T07:50:25;21.20;89.00
12413;DHT22;13877;18.896;-99.222;2023-05-19T07:52:52;21.20;89.20
12413;DHT22;13877;18.896;-99.222;2023-05-19T07:55:19;21.10;89.10
12413;DHT22;13877;18.896;-99.222;2023-05-19T07:57:49;21.10;89.20
12413;DHT22;13877;18.896;-99.222;2023-05-19T08:00:16;21.10;89.60
12413;DHT22;13877;18.896;-99.222;2023-05-19T08:02:44;21.10;89.30
12413;DHT22;13877;18.896;-99.222;2023-05-19T08:05:11;21.00;89.70
12413;DHT22;13877;18.896;-99.222;2023-05-19T08:07:38;21.00;90.00
12413;DHT22;13877;18.896;-99.222;2023-05-19T08:10:05;20.90;90.00
12413;DHT22;13877;18.896;-99.222;2023-05-19T08:12:32;20.90;90.20
12413;DHT22;13877;18.896;-99.222;2023-05-19T08:14:59;21.00;90.30
12413;DHT22;13877;18.896;-99.222;2023-05-19T08:17:26;21.00;90.30
12413;DHT22;13877;18.896;-99.222;2023-05-19T08:19:53;21.00;90.40
12413;DHT22;13877;18.896;-99.222;2023-05-19T08:22:19;21.00;90.50
12413;DHT22;13877;18.896;-99.222;2023-05-19T08:24:46;21.00;90.40
12413;DHT22;13877;18.896;-99.222;2023-05-19T08:27:15;21.00;90.40
12413;DHT22;13877;18.896;-99.222;2023-05-19T08:29:42;21.10;90.30
12413;DHT22;13877;18.896;-99.222;2023-05-19T08:32:09;21.10;90.40
12413;DHT22;13877;18.896;-99.222;2023-05-19T08:34:35;21.10;90.40
12413;DHT22;13877;18.896;-99.222;2023-05-19T08:37:03;21.10;90.80
12413;DHT22;13877;18.896;-99.222;2023-05-19T08:39:30;21.10;90.90
12413;DHT22;13877;18.896;-99.222;2023-05-19T08:41:59;21.20;90.80
12413;DHT22;13877;18.896;-99.222;2023-05-19T08:44:27;21.20;90.80
12413;DHT22;13877;18.896;-99.222;2023-05-19T08:47:02;21.10;90.90
12413;DHT22;13877;18.896;-99.222;2023-05-19T08:49:45;21.20;90.90
12413;DHT22;13877;18.896;-99.222;2023-05-19T08:57:28;21.10;91.00
12413;DHT22;13877;18.896;-99.222;2023-05-19T08:59:56;21.20;91.00
12413;DHT22;13877;18.896;-99.222;2023-05-19T09:02:24;21.20;90.90
12413;DHT22;13877;18.896;-99.222;2023-05-19T09:04:52;21.10;91.00
12413;DHT22;13877;18.896;-99.222;2023-05-19T09:07:19;21.10;91.30
12413;DHT22;13877;18.896;-99.222;2023-05-19T09:09:48;21.10;91.50
12413;DHT22;13877;18.896;-99.222;2023-05-19T09:12:15;21.00;91.60
12413;DHT22;13877;18.896;-99.222;2023-05-19T09:14:43;21.00;91.70
12413;DHT22;13877;18.896;-99.222;2023-05-19T09:17:12;21.00;91.80
12413;DHT22;13877;18.896;-99.222;2023-05-19T09:19:44;21.10;91.60
12413;DHT22;13877;18.896;-99.222;2023-05-19T09:22:15;21.20;92.00
12413;DHT22;13877;18.896;-99.222;2023-05-19T09:24:46;21.10;92.20
12413;DHT22;13877;18.896;-99.222;2023-05-19T09:27:14;21.10;92.50
12413;DHT22;13877;18.896;-99.222;2023-05-19T09:29:49;21.00;92.90
12413;DHT22;13877;18.896;-99.222;2023-05-19T09:32:26;20.90;93.20
12413;DHT22;13877;18.896;-99.222;2023-05-19T09:34:53;20.80;93.70
12413;DHT22;13877;18.896;-99.222;2023-05-19T09:37:27;20.70;94.30
12413;DHT22;13877;18.896;-99.222;2023-05-19T09:39:54;20.60;95.00
12413;DHT22;13877;18.896;-99.222;2023-05-19T09:42:25;20.50;96.00
12413;DHT22;13877;18.896;-99.222;2023-05-19T09:45:01;20.50;96.30
12413;DHT22;13877;18.896;-99.222;2023-05-19T09:47:36;20.40;96.80
12413;DHT22;13877;18.896;-99.222;2023-05-19T09:50:10;20.40;97.40
12413;DHT22;13877;18.896;-99.222;2023-05-19T09:52:39;20.30;98.20
12413;DHT22;13877;18.896;-99.222;2023-05-19T09:55:12;20.20;98.90
12413;DHT22;13877;18.896;-99.222;2023-05-19T09:57:39;20.20;99.70
12413;DHT22;13877;18.896;-99.222;2023-05-19T10:00:08;20.10;99.90
12413;DHT22;13877;18.896;-99.222;2023-05-19T10:02:46;20.10;99.90
12413;DHT22;13877;18.896;-99.222;2023-05-19T10:05:17;20.00;99.90
12413;DHT22;13877;18.896;-99.222;2023-05-19T10:07:50;20.00;99.90
12413;DHT22;13877;18.896;-99.222;2023-05-19T10:10:18;19.90;99.90
12413;DHT22;13877;18.896;-99.222;2023-05-19T10:12:48;19.90;99.90
12413;DHT22;13877;18.896;-99.222;2023-05-19T10:15:17;19.80;99.90
12413;DHT22;13877;18.896;-99.222;2023-05-19T10:17:45;19.80;99.90
12413;DHT22;13877;18.896;-99.222;2023-05-19T10:20:18;19.70;99.90
12413;DHT22;13877;18.896;-99.222;2023-05-19T10:22:45;19.70;99.90
12413;DHT22;13877;18.896;-99.222;2023-05-19T10:25:13;19.70;99.90
12413;DHT22;13877;18.896;-99.222;2023-05-19T10:27:58;19.60;99.90
12413;DHT22;13877;18.896;-99.222;2023-05-19T10:30:33;19.50;99.90
12413;DHT22;13877;18.896;-99.222;2023-05-19T10:33:02;19.50;99.90
12413;DHT22;13877;18.896;-99.222;2023-05-19T10:38:36;19.40;99.90
12413;DHT22;13877;18.896;-99.222;2023-05-19T10:46:54;19.20;99.90
12413;DHT22;13877;18.896;-99.222;2023-05-19T10:49:22;19.10;99.90
12413;DHT22;13877;18.896;-99.222;2023-05-19T10:51:53;19.10;99.90
12413;DHT22;13877;18.896;-99.222;2023-05-19T10:54:41;19.10;99.90
12413;DHT22;13877;18.896;-99.222;2023-05-19T10:57:12;19.00;99.90
12413;DHT22;13877;18.896;-99.222;2023-05-19T10:59:39;18.90;99.90
12413;DHT22;13877;18.896;-99.222;2023-05-19T11:02:07;18.90;99.90
12413;DHT22;13877;18.896;-99.222;2023-05-19T11:04:53;18.90;99.90
12413;DHT22;13877;18.896;-99.222;2023-05-19T11:07:24;18.90;99.90
12413;DHT22;13877;18.896;-99.222;2023-05-19T11:09:51;18.80;99.90
12413;DHT22;13877;18.896;-99.222;2023-05-19T11:12:22;18.80;99.90
12413;DHT22;13877;18.896;-99.222;2023-05-19T11:14:56;18.90;99.90
12413;DHT22;13877;18.896;-99.222;2023-05-19T11:17:24;18.80;99.90
12413;DHT22;13877;18.896;-99.222;2023-05-19T11:19:55;18.80;99.90
12413;DHT22;13877;18.896;-99.222;2023-05-19T11:22:24;18.80;99.90
12413;DHT22;13877;18.896;-99.222;2023-05-19T11:24:54;18.80;99.90
12413;DHT22;13877;18.896;-99.222;2023-05-19T11:27:32;18.80;99.90
12413;DHT22;13877;18.896;-99.222;2023-05-19T11:29:59;18.80;99.90
12413;DHT22;13877;18.896;-99.222;2023-05-19T11:32:31;18.80;99.90
12413;DHT22;13877;18.896;-99.222;2023-05-19T11:35:05;18.80;99.90
12413;DHT22;13877;18.896;-99.222;2023-05-19T11:37:32;18.80;99.90
12413;DHT22;13877;18.896;-99.222;2023-05-19T11:40:03;18.80;99.90
12413;DHT22;13877;18.896;-99.222;2023-05-19T11:42:34;18.80;99.90
12413;DHT22;13877;18.896;-99.222;2023-05-19T11:45:03;18.80;99.90
12413;DHT22;13877;18.896;-99.222;2023-05-19T11:47:30;18.90;99.90
12413;DHT22;13877;18.896;-99.222;2023-05-19T11:50:01;18.90;99.90
12413;DHT22;13877;18.896;-99.222;2023-05-19T11:52:27;19.00;99.90
12413;DHT22;13877;18.896;-99.222;2023-05-19T11:54:55;19.00;99.90
12413;DHT22;13877;18.896;-99.222;2023-05-19T11:57:26;19.00;99.90
12413;DHT22;13877;18.896;-99.222;2023-05-19T11:59:53;19.10;99.90
12413;DHT22;13877;18.896;-99.222;2023-05-19T12:02:23;19.10;99.90
12413;DHT22;13877;18.896;-99.222;2023-05-19T12:04:51;19.10;99.90
12413;DHT22;13877;18.896;-99.222;2023-05-19T12:07:23;19.10;99.90
12413;DHT22;13877;18.896;-99.222;2023-05-19T12:09:50;19.20;99.90
12413;DHT22;13877;18.896;-99.222;2023-05-19T12:12:19;19.20;99.90
12413;DHT22;13877;18.896;-99.222;2023-05-19T12:14:50;19.20;99.90
12413;DHT22;13877;18.896;-99.222;2023-05-19T12:17:18;19.20;99.90
12413;DHT22;13877;18.896;-99.222;2023-05-19T12:19:49;19.30;99.90
12413;DHT22;13877;18.896;-99.222;2023-05-19T12:22:17;19.40;99.90
12413;DHT22;13877;18.896;-99.222;2023-05-19T12:24:45;19.30;99.90
12413;DHT22;13877;18.896;-99.222;2023-05-19T12:27:23;19.40;99.90
12413;DHT22;13877;18.896;-99.222;2023-05-19T12:29:50;19.40;99.90
12413;DHT22;13877;18.896;-99.222;2023-05-19T12:32:18;19.50;99.90
12413;DHT22;13877;18.896;-99.222;2023-05-19T12:34:49;19.50;99.90
12413;DHT22;13877;18.896;-99.222;2023-05-19T12:37:16;19.60;99.90
12413;DHT22;13877;18.896;-99.222;2023-05-19T12:39:47;19.60;99.90
12413;DHT22;13877;18.896;-99.222;2023-05-19T12:42:15;19.70;99.90
12413;DHT22;13877;18.896;-99.222;2023-05-19T12:44:45;19.80;99.90
12413;DHT22;13877;18.896;-99.222;2023-05-19T12:47:14;19.80;99.90
12413;DHT22;13877;18.896;-99.222;2023-05-19T12:50:04;19.90;99.90
12413;DHT22;13877;18.896;-99.222;2023-05-19T12:52:33;20.00;99.90
12413;DHT22;13877;18.896;-99.222;2023-05-19T12:55:05;20.20;99.90
12413;DHT22;13877;18.896;-99.222;2023-05-19T12:57:41;20.20;99.90
12413;DHT22;13877;18.896;-99.222;2023-05-19T13:00:19;20.30;99.90
12413;DHT22;13877;18.896;-99.222;2023-05-19T13:03:04;20.30;99.90
12413;DHT22;13877;18.896;-99.222;2023-05-19T13:05:36;20.20;99.90
12413;DHT22;13877;18.896;-99.222;2023-05-19T13:08:06;20.10;99.90
12413;DHT22;13877;18.896;-99.222;2023-05-19T13:10:34;20.10;99.90
12413;DHT22;13877;18.896;-99.222;2023-05-19T13:13:02;20.10;99.90
12413;DHT22;13877;18.896;-99.222;2023-05-19T13:15:41;20.10;99.90
12413;DHT22;13877;18.896;-99.222;2023-05-19T13:18:11;20.20;99.90
12413;DHT22;13877;18.896;-99.222;2023-05-19T13:20:39;20.30;99.90
12413;DHT22;13877;18.896;-99.222;2023-05-19T13:23:06;20.50;99.90
12413;DHT22;13877;18.896;-99.222;2023-05-19T13:25:34;20.60;99.90
12413;DHT22;13877;18.896;-99.222;2023-05-19T13:28:03;20.50;99.90
12413;DHT22;13877;18.896;-99.222;2023-05-19T13:30:32;20.60;99.90
12413;DHT22;13877;18.896;-99.222;2023-05-19T13:32:59;20.70;99.90
12413;DHT22;13877;18.896;-99.222;2023-05-19T13:35:26;20.70;99.90
12413;DHT22;13877;18.896;-99.222;2023-05-19T13:37:53;20.80;99.90
12413;DHT22;13877;18.896;-99.222;2023-05-19T13:40:20;21.00;99.90
12413;DHT22;13877;18.896;-99.222;2023-05-19T13:42:52;21.10;99.90
12413;DHT22;13877;18.896;-99.222;2023-05-19T13:45:18;21.20;99.90
12413;DHT22;13877;18.896;-99.222;2023-05-19T13:47:45;21.40;99.90
12413;DHT22;13877;18.896;-99.222;2023-05-19T13:50:12;21.50;99.90
12413;DHT22;13877;18.896;-99.222;2023-05-19T13:52:39;21.60;99.90
12413;DHT22;13877;18.896;-99.222;2023-05-19T13:55:06;21.70;99.90
12413;DHT22;13877;18.896;-99.222;2023-05-19T13:57:33;22.00;99.90
12413;DHT22;13877;18.896;-99.222;2023-05-19T14:00:00;22.00;99.90
12413;DHT22;13877;18.896;-99.222;2023-05-19T14:02:38;22.20;99.90
12413;DHT22;13877;18.896;-99.222;2023-05-19T14:05:06;22.70;99.90
12413;DHT22;13877;18.896;-99.222;2023-05-19T14:07:33;22.60;99.90
12413;DHT22;13877;18.896;-99.222;2023-05-19T14:10:00;22.60;99.90
12413;DHT22;13877;18.896;-99.222;2023-05-19T14:12:29;22.90;99.00
12413;DHT22;13877;18.896;-99.222;2023-05-19T14:14:56;23.20;98.70
12413;DHT22;13877;18.896;-99.222;2023-05-19T14:17:25;23.60;97.80
12413;DHT22;13877;18.896;-99.222;2023-05-19T14:19:52;23.30;96.00
12413;DHT22;13877;18.896;-99.222;2023-05-19T14:22:19;23.40;95.90
12413;DHT22;13877;18.896;-99.222;2023-05-19T14:24:46;23.70;95.20
12413;DHT22;13877;18.896;-99.222;2023-05-19T14:27:12;23.70;94.00
12413;DHT22;13877;18.896;-99.222;2023-05-19T14:29:41;23.50;93.10
12413;DHT22;13877;18.896;-99.222;2023-05-19T14:32:11;23.80;92.60
12413;DHT22;13877;18.896;-99.222;2023-05-19T14:34:38;24.10;91.90
12413;DHT22;13877;18.896;-99.222;2023-05-19T14:37:05;24.40;91.40
12413;DHT22;13877;18.896;-99.222;2023-05-19T14:39:32;24.40;90.40
12413;DHT22;13877;18.896;-99.222;2023-05-19T14:41:59;24.70;89.90
12413;DHT22;13877;18.896;-99.222;2023-05-19T14:44:30;25.00;86.90
12413;DHT22;13877;18.896;-99.222;2023-05-19T14:47:00;25.20;86.40
12413;DHT22;13877;18.896;-99.222;2023-05-19T14:49:27;25.30;86.30
12413;DHT22;13877;18.896;-99.222;2023-05-19T14:51:54;25.30;83.30
12413;DHT22;13877;18.896;-99.222;2023-05-19T14:54:21;25.50;84.30
12413;DHT22;13877;18.896;-99.222;2023-05-19T14:56:48;25.50;81.90
12413;DHT22;13877;18.896;-99.222;2023-05-19T14:59:15;25.60;82.70
12413;DHT22;13877;18.896;-99.222;2023-05-19T15:01:42;25.50;82.90
12413;DHT22;13877;18.896;-99.222;2023-05-19T15:04:09;25.40;83.90
12413;DHT22;13877;18.896;-99.222;2023-05-19T15:06:36;25.40;82.90
12413;DHT22;13877;18.896;-99.222;2023-05-19T15:09:03;25.70;82.50
12413;DHT22;13877;18.896;-99.222;2023-05-19T15:11:30;25.30;82.70
12413;DHT22;13877;18.896;-99.222;2023-05-19T15:13:57;24.60;84.30
12413;DHT22;13877;18.896;-99.222;2023-05-19T15:16:24;24.40;87.00
12413;DHT22;13877;18.896;-99.222;2023-05-19T15:18:50;24.70;87.60
12413;DHT22;13877;18.896;-99.222;2023-05-19T15:21:20;25.30;87.00
12413;DHT22;13877;18.896;-99.222;2023-05-19T15:23:47;26.10;84.10
12413;DHT22;13877;18.896;-99.222;2023-05-19T15:26:14;26.40;83.20
12413;DHT22;13877;18.896;-99.222;2023-05-19T15:28:41;26.30;83.50
12413;DHT22;13877;18.896;-99.222;2023-05-19T15:31:08;26.10;81.20
12413;DHT22;13877;18.896;-99.222;2023-05-19T15:33:35;26.30;81.50
12413;DHT22;13877;18.896;-99.222;2023-05-19T15:36:02;26.80;80.70
12413;DHT22;13877;18.896;-99.222;2023-05-19T15:38:29;26.70;78.40
12413;DHT22;13877;18.896;-99.222;2023-05-19T15:40:58;26.40;78.90